createdAt,value
2022-09-15T00:01:00.970Z,86.95
2022-09-15T00:03:28.543Z,87.28
2022-09-15T00:05:55.809Z,86.99
2022-09-15T00:08:23.477Z,85.17
2022-09-15T00:10:52.988Z,82.88
2022-09-15T00:13:21.071Z,85.20
2022-09-15T00:15:48.694Z,83.91
2022-09-15T00:18:16.112Z,82.59
2022-09-15T00:20:45.232Z,81.87
2022-09-15T00:23:14.220Z,82.91
2022-09-15T00:25:46.798Z,83.04
2022-09-15T00:28:15.810Z,81.66
2022-09-15T00:30:44.868Z,83.05
2022-09-15T00:33:12.951Z,83.95
2022-09-15T00:35:41.411Z,83.57
2022-09-15T00:38:10.303Z,81.48
2022-09-15T00:40:44.983Z,83.05
2022-09-15T00:43:12.902Z,86.61
2022-09-15T00:45:40.696Z,87.57
2022-09-15T00:48:12.429Z,86.93
2022-09-15T00:50:41.132Z,86.69
2022-09-15T00:53:09.953Z,86.31
2022-09-15T00:55:47.505Z,85.60
2022-09-15T00:58:21.919Z,86.18
2022-09-15T01:01:03.271Z,85.85
2022-09-15T01:03:33.069Z,85.08
2022-09-15T01:06:05.783Z,83.95
2022-09-15T01:08:36.168Z,84.02
2022-09-15T01:11:03.726Z,82.85
2022-09-15T01:13:30.955Z,84.00
2022-09-15T01:19:10.377Z,87.09
2022-09-15T01:21:43.439Z,87.54
2022-09-15T01:24:16.892Z,90.06
2022-09-15T01:27:30.450Z,89.34
2022-09-15T01:30:04.138Z,88.15
2022-09-15T01:32:53.148Z,86.50
2022-09-15T01:35:57.826Z,87.39
2022-09-15T01:38:33.306Z,88.30
2022-09-15T01:41:05.873Z,88.08
2022-09-15T01:43:39.364Z,88.04
2022-09-15T01:46:07.465Z,87.68
2022-09-15T01:48:35.866Z,88.89
2022-09-15T01:51:03.971Z,89.32
2022-09-15T01:53:31.361Z,88.92
2022-09-15T01:56:02.802Z,90.24
2022-09-15T01:58:29.995Z,90.39
2022-09-15T02:01:00.870Z,88.88
2022-09-15T02:03:35.051Z,88.33
2022-09-15T02:06:07.237Z,89.84
2022-09-15T02:08:47.724Z,87.76
2022-09-15T02:11:21.823Z,88.44
2022-09-15T02:14:28.328Z,89.69
2022-09-15T02:16:56.061Z,89.67
2022-09-15T02:19:41.202Z,88.51
2022-09-15T02:22:17.568Z,91.36
2022-09-15T02:24:50.102Z,92.89
2022-09-15T02:27:24.072Z,91.99
2022-09-15T02:29:54.058Z,92.88
2022-09-15T02:32:23.498Z,90.28
2022-09-15T02:34:51.695Z,88.55
2022-09-15T02:37:21.319Z,88.85
2022-09-15T02:39:51.730Z,87.77
2022-09-15T02:42:26.829Z,87.73
2022-09-15T02:44:54.130Z,88.31
2022-09-15T02:47:21.617Z,89.57
2022-09-15T02:49:48.866Z,90.13
2022-09-15T02:52:16.400Z,91.14
2022-09-15T02:54:43.716Z,89.75
2022-09-15T02:57:10.910Z,87.24
2022-09-15T03:00:13.308Z,86.40
2022-09-15T03:02:41.846Z,87.64
2022-09-15T03:05:10.656Z,85.34
2022-09-15T03:07:38.512Z,87.29
2022-09-15T03:10:07.644Z,86.89
2022-09-15T03:12:54.243Z,84.42
2022-09-15T03:15:23.625Z,86.38
2022-09-15T03:17:50.908Z,84.89
2022-09-15T03:20:23.200Z,83.69
2022-09-15T03:22:50.417Z,82.29
2022-09-15T03:25:18.565Z,81.03
2022-09-15T03:27:46.256Z,79.12
2022-09-15T03:30:14.059Z,79.08
2022-09-15T03:32:41.313Z,77.66
2022-09-15T03:35:09.418Z,78.15
2022-09-15T03:37:37.205Z,78.92
2022-09-15T03:40:05.232Z,79.25
2022-09-15T03:42:32.694Z,78.01
2022-09-15T03:44:59.926Z,76.07
2022-09-15T03:47:27.197Z,79.51
2022-09-15T03:49:55.312Z,79.31
2022-09-15T03:52:23.882Z,80.73
2022-09-15T03:54:51.068Z,83.25
2022-09-15T03:57:18.312Z,85.11
2022-09-15T03:59:45.480Z,81.87
2022-09-15T04:02:12.900Z,79.36
2022-09-15T04:04:40.095Z,80.74
2022-09-15T04:07:08.818Z,81.10
2022-09-15T04:09:37.338Z,82.93
2022-09-15T04:12:04.753Z,83.24
2022-09-15T04:14:31.983Z,81.85
2022-09-15T04:16:59.372Z,81.27
2022-09-15T04:19:26.640Z,81.28
2022-09-15T04:21:53.900Z,82.09
2022-09-15T04:24:21.107Z,82.25
2022-09-15T04:26:48.551Z,82.02
2022-09-15T04:29:17.466Z,82.59
2022-09-15T04:31:45.175Z,82.82
2022-09-15T04:34:12.405Z,84.34
2022-09-15T04:36:39.657Z,85.81
2022-09-15T04:39:06.968Z,83.46
2022-09-15T04:41:34.456Z,82.87
2022-09-15T04:44:02.382Z,83.40
2022-09-15T04:46:29.780Z,84.74
2022-09-15T04:48:57.416Z,86.50
2022-09-15T04:51:24.960Z,85.32
2022-09-15T04:53:52.386Z,85.32
2022-09-15T04:56:22.074Z,84.75
2022-09-15T04:59:03.214Z,81.41
2022-09-15T05:01:33.880Z,83.88
2022-09-15T05:04:05.990Z,85.11
2022-09-15T05:06:34.703Z,85.68
2022-09-15T05:09:06.522Z,85.03
2022-09-15T05:11:37.723Z,85.07
2022-09-15T05:14:05.057Z,86.28
2022-09-15T05:16:32.422Z,85.03
2022-09-15T05:19:02.963Z,83.74
2022-09-15T05:21:30.815Z,84.51
2022-09-15T05:23:58.234Z,83.98
2022-09-15T05:26:28.201Z,83.15
2022-09-15T05:28:56.563Z,84.09
2022-09-15T05:31:36.243Z,82.66
2022-09-15T05:34:05.589Z,84.77
2022-09-15T05:36:33.613Z,87.13
2022-09-15T05:39:01.844Z,82.04
2022-09-15T05:41:29.427Z,84.63
2022-09-15T05:43:57.764Z,82.55
2022-09-15T05:46:29.084Z,86.20
2022-09-15T05:48:58.175Z,86.61
2022-09-15T05:51:25.484Z,86.13
2022-09-15T05:53:52.779Z,81.60
2022-09-15T05:56:20.242Z,84.83
2022-09-15T05:58:48.245Z,82.26
2022-09-15T06:01:18.030Z,82.48
2022-09-15T06:03:45.793Z,82.74
2022-09-15T06:06:13.541Z,85.12
2022-09-15T06:08:44.415Z,85.47
2022-09-15T06:11:23.833Z,89.34
2022-09-15T06:13:51.095Z,90.00
2022-09-15T06:16:21.308Z,87.03
2022-09-15T06:18:49.102Z,87.67
2022-09-15T06:21:21.136Z,89.16
2022-09-15T06:23:56.095Z,89.78
2022-09-15T06:26:23.545Z,85.51
2022-09-15T06:28:55.559Z,87.74
2022-09-15T06:31:23.795Z,86.35
2022-09-15T06:33:54.111Z,86.24
2022-09-15T06:36:23.075Z,83.12
2022-09-15T06:38:51.679Z,83.58
2022-09-15T06:41:18.994Z,84.79
2022-09-15T06:43:46.878Z,88.45
2022-09-15T06:46:17.163Z,87.60
2022-09-15T06:48:48.163Z,85.07
2022-09-15T06:51:17.496Z,86.18
2022-09-15T06:53:45.585Z,84.49
2022-09-15T06:56:15.049Z,84.34
2022-09-15T06:58:43.075Z,85.18
2022-09-15T07:01:12.526Z,87.22
2022-09-15T07:03:42.566Z,87.23
2022-09-15T07:06:12.064Z,86.71
2022-09-15T07:08:40.447Z,86.21
2022-09-15T07:11:09.636Z,87.34
2022-09-15T07:13:37.379Z,86.51
2022-09-15T07:16:06.596Z,85.38
2022-09-15T07:18:35.507Z,85.11
2022-09-15T07:21:10.455Z,85.52
2022-09-15T07:23:37.776Z,85.08
2022-09-15T07:26:15.405Z,85.01
2022-09-15T07:28:44.853Z,85.59
2022-09-15T07:31:15.395Z,83.78
2022-09-15T07:33:45.770Z,82.02
2022-09-15T07:36:13.277Z,79.38
2022-09-15T07:38:43.060Z,76.92
2022-09-15T07:41:25.160Z,74.71
2022-09-15T07:43:54.506Z,76.47
2022-09-15T07:46:23.318Z,75.36
2022-09-15T07:48:53.345Z,75.52
2022-09-15T07:51:20.846Z,76.97
2022-09-15T07:53:48.534Z,75.06
2022-09-15T07:56:19.690Z,72.89
2022-09-15T07:58:47.697Z,72.42
2022-09-15T08:01:16.292Z,72.24
2022-09-15T08:03:46.250Z,72.97
2022-09-15T08:06:14.410Z,70.68
2022-09-15T08:08:44.039Z,70.66
2022-09-15T08:11:18.405Z,70.77
2022-09-15T08:13:47.704Z,71.68
2022-09-15T08:16:18.185Z,69.33
2022-09-15T08:18:45.896Z,68.46
2022-09-15T08:21:22.642Z,66.79
2022-09-15T08:23:51.825Z,66.26
2022-09-15T08:26:19.138Z,66.38
2022-09-15T08:28:46.424Z,65.42
2022-09-15T08:31:14.505Z,64.69
2022-09-15T08:33:45.693Z,65.73
2022-09-15T08:36:13.805Z,63.70
2022-09-15T08:38:44.510Z,63.46
2022-09-15T08:41:20.425Z,62.21
2022-09-15T08:43:50.039Z,64.16
2022-09-15T08:46:22.709Z,63.48
2022-09-15T08:48:58.623Z,62.08
2022-09-15T08:51:50.110Z,61.87
2022-09-15T08:54:21.462Z,61.73
2022-09-15T08:56:49.131Z,60.51
2022-09-15T08:59:17.593Z,59.90
2022-09-15T09:01:54.766Z,60.87
2022-09-15T09:04:43.465Z,59.18
2022-09-15T09:07:26.131Z,58.49
2022-09-15T09:09:57.525Z,58.41
2022-09-15T09:12:43.209Z,58.46
2022-09-15T09:15:35.021Z,56.76
2022-09-15T09:18:11.414Z,57.40
2022-09-15T09:20:41.397Z,57.31
2022-09-15T09:23:13.074Z,56.50
2022-09-15T09:25:42.097Z,55.65
2022-09-15T09:28:39.035Z,57.13
2022-09-15T09:31:08.311Z,58.70
2022-09-15T09:33:47.701Z,58.22
2022-09-15T09:36:15.572Z,57.63
2022-09-15T09:38:45.675Z,57.06
2022-09-15T09:41:15.665Z,57.75
2022-09-15T09:43:44.489Z,57.30
2022-09-15T09:46:14.980Z,56.58
2022-09-15T09:49:03.760Z,56.48
2022-09-15T09:51:39.757Z,56.06
2022-09-15T09:54:11.962Z,55.68
2022-09-15T09:56:40.305Z,57.54
2022-09-15T09:59:39.526Z,56.86
2022-09-15T10:02:18.208Z,55.95
2022-09-15T10:04:53.876Z,55.74
2022-09-15T10:07:27.445Z,56.63
2022-09-15T10:09:57.439Z,56.56
2022-09-15T10:12:32.961Z,58.09
2022-09-15T10:15:03.798Z,59.06
2022-09-15T10:17:41.015Z,57.55
2022-09-15T10:20:28.763Z,56.75
2022-09-15T10:23:29.583Z,56.26
2022-09-15T10:26:18.243Z,55.99
2022-09-15T10:28:45.955Z,55.04
2022-09-15T10:31:28.082Z,53.57
2022-09-15T10:33:55.374Z,54.74
2022-09-15T10:36:24.523Z,55.15
2022-09-15T10:39:21.041Z,54.03
2022-09-15T10:42:04.459Z,54.83
2022-09-15T10:44:34.192Z,53.92
2022-09-15T10:47:53.609Z,54.53
2022-09-15T10:50:27.511Z,54.05
2022-09-15T10:53:39.590Z,52.89
2022-09-15T10:56:35.220Z,52.45
2022-09-15T10:59:18.778Z,52.42
2022-09-15T11:02:16.995Z,52.92
2022-09-15T11:04:53.434Z,52.34
2022-09-15T11:07:23.622Z,51.61
2022-09-15T11:09:52.549Z,50.14
2022-09-15T11:12:48.523Z,49.95
2022-09-15T11:15:43.322Z,50.03
2022-09-15T11:18:13.720Z,52.36
2022-09-15T11:21:02.388Z,52.28
2022-09-15T11:23:54.756Z,51.27
2022-09-15T11:26:28.088Z,50.90
2022-09-15T11:29:16.421Z,50.91
2022-09-15T11:31:44.990Z,51.23
2022-09-15T11:34:22.460Z,50.97
2022-09-15T11:36:55.123Z,50.68
2022-09-15T11:39:24.051Z,49.57
2022-09-15T11:41:57.479Z,47.87
2022-09-15T11:44:28.258Z,48.79
2022-09-15T11:47:23.275Z,48.18
2022-09-15T11:49:58.219Z,48.90
2022-09-15T11:52:46.815Z,49.60
2022-09-15T11:55:22.801Z,49.82
2022-09-15T11:58:01.356Z,49.25
2022-09-15T12:00:28.686Z,49.91
2022-09-15T12:03:21.043Z,48.15
2022-09-15T12:05:54.590Z,48.02
2022-09-15T12:08:24.990Z,48.32
2022-09-15T12:10:55.420Z,48.22
2022-09-15T12:13:25.696Z,48.33
2022-09-15T12:15:53.504Z,49.19
2022-09-15T12:18:47.683Z,48.30
2022-09-15T12:21:35.910Z,46.64
2022-09-15T12:24:22.116Z,46.56
2022-09-15T12:26:50.284Z,46.24
2022-09-15T12:29:26.643Z,47.43
2022-09-15T12:32:20.000Z,49.12
2022-09-15T12:35:16.417Z,49.59
2022-09-15T12:37:47.259Z,49.06
2022-09-15T12:40:34.548Z,49.15
2022-09-15T12:43:03.898Z,48.10
2022-09-15T12:45:38.610Z,48.50
2022-09-15T12:48:12.122Z,47.70
2022-09-15T12:50:41.030Z,48.81
2022-09-15T12:53:23.448Z,48.11
2022-09-15T12:55:55.921Z,47.42
2022-09-15T12:58:49.793Z,47.83
2022-09-15T13:01:23.377Z,48.10
2022-09-15T13:03:50.953Z,47.09
2022-09-15T13:06:20.975Z,46.99
2022-09-15T13:08:49.174Z,48.65
2022-09-15T13:11:36.882Z,49.19
2022-09-15T13:14:04.249Z,48.71
2022-09-15T13:16:54.985Z,47.80
2022-09-15T13:19:27.213Z,46.86
2022-09-15T13:22:00.016Z,45.54
2022-09-15T13:24:36.032Z,46.81
2022-09-15T13:27:05.621Z,47.41
2022-09-15T13:29:43.409Z,47.99
2022-09-15T13:32:45.103Z,48.17
2022-09-15T13:35:27.681Z,48.03
2022-09-15T13:38:25.001Z,48.63
2022-09-15T13:41:32.838Z,49.89
2022-09-15T13:44:07.247Z,49.56
2022-09-15T13:47:08.788Z,49.86
2022-09-15T13:49:47.737Z,48.85
2022-09-15T13:52:22.473Z,49.54
2022-09-15T13:55:28.001Z,50.17
2022-09-15T14:00:55.766Z,50.15
2022-09-15T14:03:33.880Z,49.80
2022-09-15T14:06:01.330Z,49.32
2022-09-15T14:08:32.448Z,48.58
2022-09-15T14:11:03.597Z,48.51
2022-09-15T14:13:31.453Z,48.04
2022-09-15T14:16:28.026Z,48.68
2022-09-15T14:18:57.783Z,48.18
2022-09-15T14:21:28.230Z,47.48
2022-09-15T14:23:57.878Z,47.51
2022-09-15T14:26:27.104Z,47.03
2022-09-15T14:29:01.156Z,48.01
2022-09-15T14:31:34.708Z,47.47
2022-09-15T14:34:04.049Z,47.08
2022-09-15T14:36:33.199Z,47.06
2022-09-15T14:39:16.386Z,46.10
2022-09-15T14:41:44.288Z,45.89
2022-09-15T14:45:54.993Z,45.41
2022-09-15T14:47:25.522Z,44.49
2022-09-15T14:50:10.176Z,44.47
2022-09-15T14:52:43.241Z,45.32
2022-09-15T14:55:24.475Z,46.55
2022-09-15T14:58:30.057Z,47.12
2022-09-15T15:01:11.744Z,47.13
2022-09-15T15:03:57.955Z,47.29
2022-09-15T15:06:29.369Z,48.23
2022-09-15T15:08:58.326Z,47.81
2022-09-15T15:11:26.014Z,47.45
2022-09-15T15:13:53.857Z,47.19
2022-09-15T15:16:24.558Z,46.46
2022-09-15T15:18:53.524Z,45.34
2022-09-15T15:21:42.317Z,45.38
2022-09-15T15:24:17.392Z,45.20
2022-09-15T15:26:46.203Z,46.02
2022-09-15T15:29:38.365Z,45.26
2022-09-15T15:32:13.629Z,45.03
2022-09-15T15:34:48.820Z,43.75
2022-09-15T15:37:26.441Z,43.69
2022-09-15T15:39:55.558Z,44.36
2022-09-15T15:42:24.116Z,42.47
2022-09-15T15:45:09.885Z,42.64
2022-09-15T15:47:37.413Z,42.56
2022-09-15T15:50:13.592Z,41.63
2022-09-15T15:52:42.018Z,42.35
2022-09-15T15:55:13.782Z,42.48
2022-09-15T15:57:41.230Z,44.03
2022-09-15T16:00:30.530Z,43.22
2022-09-15T16:02:57.852Z,43.59
2022-09-15T16:05:29.512Z,43.26
2022-09-15T16:08:00.659Z,43.09
2022-09-15T16:10:30.343Z,43.30
2022-09-15T16:12:57.691Z,43.06
2022-09-15T16:15:25.088Z,43.87
2022-09-15T16:17:52.258Z,42.64
2022-09-15T16:20:19.825Z,42.10
2022-09-15T16:22:47.084Z,42.18
2022-09-15T16:25:28.088Z,42.02
2022-09-15T16:27:55.799Z,41.81
2022-09-15T16:30:23.043Z,41.97
2022-09-15T16:32:50.412Z,42.35
2022-09-15T16:35:22.674Z,42.39
2022-09-15T16:37:50.019Z,41.80
2022-09-15T16:40:18.072Z,42.12
2022-09-15T16:42:47.264Z,42.71
2022-09-15T16:45:22.925Z,45.84
2022-09-15T16:47:50.113Z,46.58
2022-09-15T16:50:17.476Z,48.68
2022-09-15T16:52:44.791Z,49.45
2022-09-15T16:55:23.379Z,49.69
2022-09-15T16:57:51.017Z,51.64
2022-09-15T17:00:18.302Z,52.18
2022-09-15T17:02:48.938Z,54.12
2022-09-15T17:05:26.182Z,55.22
2022-09-15T17:07:53.428Z,55.73
2022-09-15T17:10:20.930Z,55.21
2022-09-15T17:12:48.630Z,55.47
2022-09-15T17:15:20.217Z,55.56
2022-09-15T17:17:48.061Z,56.67
2022-09-15T17:20:15.922Z,57.31
2022-09-15T17:22:43.334Z,57.51
2022-09-15T17:25:31.359Z,58.22
2022-09-15T17:27:59.190Z,58.47
2022-09-15T17:30:29.120Z,58.31
2022-09-15T17:33:04.298Z,58.54
2022-09-15T17:35:37.482Z,59.34
2022-09-15T17:38:06.470Z,59.95
2022-09-15T17:40:34.844Z,59.05
2022-09-15T17:43:02.541Z,59.17
2022-09-15T17:45:36.613Z,58.97
2022-09-15T17:48:04.648Z,60.41
2022-09-15T17:50:33.893Z,60.38
2022-09-15T17:53:01.268Z,60.41
2022-09-15T17:55:33.457Z,59.61
2022-09-15T17:58:02.631Z,59.49
2022-09-15T18:00:33.352Z,59.81
2022-09-15T18:03:02.849Z,60.15
2022-09-15T18:05:32.969Z,60.49
2022-09-15T18:08:03.394Z,59.89
2022-09-15T18:10:32.052Z,58.64
2022-09-15T18:12:59.338Z,59.09
2022-09-15T18:15:29.234Z,58.99
2022-09-15T18:18:03.845Z,58.13
2022-09-15T18:20:33.127Z,58.32
2022-09-15T18:23:00.470Z,57.88
2022-09-15T18:25:33.724Z,58.36
2022-09-15T18:28:01.883Z,58.44
2022-09-15T18:30:36.454Z,58.37
2022-09-15T18:33:03.947Z,58.11
2022-09-15T18:35:31.352Z,58.28
2022-09-15T18:37:59.784Z,57.54
2022-09-15T18:40:28.288Z,55.44
2022-09-15T18:42:56.574Z,55.83
2022-09-15T18:45:23.966Z,55.37
2022-09-15T18:47:52.310Z,54.22
2022-09-15T18:50:21.780Z,55.14
2022-09-15T18:52:49.374Z,55.31
2022-09-15T18:55:20.195Z,54.98
2022-09-15T18:57:48.146Z,55.51
2022-09-15T19:00:17.993Z,55.34
2022-09-15T19:02:45.446Z,54.79
2022-09-15T19:05:16.483Z,55.09
2022-09-15T19:07:44.527Z,55.07
2022-09-15T19:10:13.161Z,54.00
2022-09-15T19:12:40.810Z,54.19
2022-09-15T19:15:12.143Z,54.98
2022-09-15T19:17:40.576Z,54.93
2022-09-15T19:20:09.870Z,55.21
2022-09-15T19:22:38.003Z,54.43
2022-09-15T19:25:06.576Z,54.19
2022-09-15T19:27:33.967Z,54.00
2022-09-15T19:30:01.396Z,54.40
2022-09-15T19:32:28.879Z,53.48
2022-09-15T19:34:56.112Z,54.29
2022-09-15T19:37:23.592Z,54.71
2022-09-15T19:39:51.282Z,54.19
2022-09-15T19:42:18.534Z,54.16
2022-09-15T19:44:47.731Z,55.30
2022-09-15T19:47:15.379Z,55.48
2022-09-15T19:49:43.088Z,54.34
2022-09-15T19:52:10.554Z,54.27
2022-09-15T19:54:37.863Z,54.03
2022-09-15T19:57:05.356Z,53.45
2022-09-15T19:59:32.609Z,53.28
2022-09-15T20:02:00.804Z,53.09
2022-09-15T20:07:13.785Z,53.56
2022-09-15T20:09:40.988Z,54.39
2022-09-15T20:12:08.163Z,53.76
2022-09-15T20:14:35.539Z,54.17
2022-09-15T20:17:02.699Z,54.52
2022-09-15T20:19:29.896Z,55.30
2022-09-15T20:21:57.630Z,54.55
2022-09-15T20:24:25.040Z,54.80
2022-09-15T20:26:52.447Z,55.48
2022-09-15T20:29:20.237Z,54.46
2022-09-15T20:31:48.087Z,54.64
2022-09-15T20:34:15.841Z,55.62
2022-09-15T20:36:43.765Z,55.22
2022-09-15T20:39:14.550Z,55.13
2022-09-15T20:41:45.170Z,54.85
2022-09-15T20:44:13.092Z,54.42
2022-09-15T20:46:40.698Z,54.28
2022-09-15T20:49:08.951Z,55.12
2022-09-15T20:51:36.203Z,55.49
2022-09-15T20:54:04.971Z,54.48
2022-09-15T20:56:34.992Z,55.54
2022-09-15T20:59:02.733Z,55.56
2022-09-15T21:01:34.530Z,55.86
2022-09-15T21:04:02.281Z,54.97
2022-09-15T21:06:29.507Z,55.83
2022-09-15T21:08:57.811Z,55.29
2022-09-15T21:11:29.640Z,56.12
2022-09-15T21:13:57.771Z,56.49
2022-09-15T21:16:27.419Z,55.83
2022-09-15T21:18:56.387Z,55.35
2022-09-15T21:21:25.866Z,55.40
2022-09-15T21:23:55.066Z,55.42
2022-09-15T21:26:24.816Z,56.02
2022-09-15T21:28:53.745Z,55.11
2022-09-15T21:31:22.842Z,53.49
2022-09-15T21:33:51.374Z,52.97
2022-09-15T21:36:24.611Z,54.30
2022-09-15T21:38:53.886Z,54.97
2022-09-15T21:41:22.922Z,54.16
2022-09-15T21:43:55.376Z,55.06
2022-09-15T21:46:24.364Z,55.26
2022-09-15T21:48:51.809Z,53.89
2022-09-15T21:51:24.329Z,54.60
2022-09-15T21:53:56.751Z,54.95
2022-09-15T21:56:24.703Z,54.91
2022-09-15T21:58:51.942Z,54.17
2022-09-15T22:01:20.232Z,55.45
2022-09-15T22:03:51.985Z,55.96
2022-09-15T22:06:21.415Z,56.48
2022-09-15T22:09:45.271Z,56.23
2022-09-15T22:12:18.819Z,56.65
2022-09-15T22:14:46.011Z,57.26
2022-09-15T22:17:13.906Z,56.42
2022-09-15T22:19:41.179Z,55.67
2022-09-15T22:22:08.846Z,56.57
2022-09-15T22:24:36.131Z,56.56
2022-09-15T22:27:03.390Z,57.31
2022-09-15T22:29:30.534Z,57.95
2022-09-15T22:31:57.865Z,57.88
2022-09-15T22:34:25.054Z,56.42
2022-09-15T22:36:52.221Z,55.37
2022-09-15T22:39:19.360Z,55.96
2022-09-15T22:41:46.674Z,54.87
2022-09-15T22:44:18.865Z,56.89
2022-09-15T22:46:46.377Z,56.87
2022-09-15T22:49:13.592Z,57.91
2022-09-15T22:51:40.891Z,58.04
2022-09-15T22:54:08.102Z,57.61
2022-09-15T22:56:35.334Z,58.31
2022-09-15T22:59:02.795Z,58.36
2022-09-15T23:01:31.097Z,59.61
2022-09-15T23:04:00.886Z,58.58
2022-09-15T23:06:30.796Z,56.44
2022-09-15T23:08:59.979Z,59.31
2022-09-15T23:11:28.532Z,58.34
2022-09-15T23:13:56.418Z,57.90
2022-09-15T23:16:25.008Z,58.28
2022-09-15T23:18:53.095Z,59.61
2022-09-15T23:21:20.954Z,60.53
2022-09-15T23:23:49.247Z,59.01
2022-09-15T23:26:18.365Z,59.74
2022-09-15T23:28:45.861Z,60.60
2022-09-15T23:31:13.695Z,57.17
2022-09-15T23:33:41.600Z,59.86
2022-09-15T23:36:11.676Z,59.16
2022-09-15T23:38:41.040Z,56.56
2022-09-15T23:41:08.967Z,57.12
2022-09-15T23:43:36.309Z,57.76
2022-09-15T23:46:04.570Z,57.93
2022-09-15T23:48:32.534Z,58.96
2022-09-15T23:51:00.021Z,62.22
2022-09-15T23:53:27.397Z,60.96
2022-09-15T23:55:54.676Z,60.61
2022-09-15T23:58:21.900Z,58.89
